createdAt,value
2019-01-12T00:00:54.411Z,1.70
2019-01-12T00:03:25.551Z,1.70
2019-01-12T00:05:55.703Z,1.60
2019-01-12T00:08:25.863Z,1.60
2019-01-12T00:10:56.005Z,1.70
2019-01-12T00:13:27.442Z,1.60
2019-01-12T00:16:00.758Z,1.60
2019-01-12T00:18:30.997Z,1.70
2019-01-12T00:21:00.911Z,1.70
2019-01-12T00:23:37.617Z,1.70
2019-01-12T00:26:07.666Z,1.70
2019-01-12T00:28:42.074Z,1.70
2019-01-12T00:31:12.666Z,1.70
2019-01-12T00:33:44.439Z,1.70
2019-01-12T00:36:14.561Z,1.70
2019-01-12T00:38:53.614Z,1.80
2019-01-12T00:41:24.307Z,1.80
2019-01-12T00:43:54.411Z,1.80
2019-01-12T00:46:24.988Z,1.80
2019-01-12T00:48:58.030Z,1.80
2019-01-12T00:51:28.035Z,1.80
2019-01-12T00:54:01.098Z,1.80
2019-01-12T00:56:30.795Z,1.80
2019-01-12T00:59:03.170Z,1.80
2019-01-12T01:04:30.701Z,1.80
2019-01-12T01:07:01.506Z,1.80
2019-01-12T01:09:31.620Z,1.80
2019-01-12T01:12:01.372Z,1.80
2019-01-12T01:14:58.515Z,1.80
2019-01-12T01:17:28.898Z,1.80
2019-01-12T01:20:02.678Z,1.80
2019-01-12T01:22:33.358Z,1.80
2019-01-12T01:25:09.008Z,1.80
2019-01-12T01:27:43.024Z,1.80
2019-01-12T01:30:15.971Z,1.70
2019-01-12T01:32:45.667Z,1.80
2019-01-12T01:35:17.347Z,1.70
2019-01-12T01:37:47.332Z,1.80
2019-01-12T01:40:18.472Z,1.80
2019-01-12T01:42:48.636Z,1.80
2019-01-12T01:45:19.354Z,1.80
2019-01-12T01:47:58.688Z,1.70
2019-01-12T01:50:28.623Z,1.70
2019-01-12T01:53:01.616Z,1.70
2019-01-12T01:55:32.434Z,1.70
2019-01-12T01:58:02.618Z,1.80
2019-01-12T02:00:36.775Z,1.80
2019-01-12T02:03:07.127Z,1.80
2019-01-12T02:05:38.244Z,1.70
2019-01-12T02:08:08.460Z,1.80
2019-01-12T02:10:39.161Z,1.70
2019-01-12T02:13:09.867Z,1.80
2019-01-12T02:15:40.127Z,1.80
2019-01-12T02:18:15.487Z,1.80
2019-01-12T02:20:45.147Z,1.70
2019-01-12T02:23:15.494Z,1.70
2019-01-12T02:25:46.372Z,1.80
2019-01-12T02:28:16.879Z,1.80
2019-01-12T02:30:46.665Z,1.80
2019-01-12T02:33:16.708Z,1.80
2019-01-12T02:35:46.998Z,1.80
2019-01-12T02:38:17.395Z,1.80
2019-01-12T02:40:47.259Z,1.80
2019-01-12T02:43:17.407Z,1.80
2019-01-12T02:45:50.053Z,1.80
2019-01-12T02:48:20.646Z,1.70
2019-01-12T02:50:53.504Z,1.70
2019-01-12T02:53:24.090Z,1.70
2019-01-12T02:55:54.263Z,1.70
2019-01-12T02:58:24.755Z,1.70
2019-01-12T03:00:56.677Z,1.70
2019-01-12T03:03:29.610Z,1.70
2019-01-12T03:06:05.004Z,1.70
2019-01-12T03:08:35.169Z,1.70
2019-01-12T03:11:04.922Z,1.70
2019-01-12T03:13:34.907Z,1.70
2019-01-12T03:16:09.074Z,1.70
2019-01-12T03:18:42.933Z,1.80
2019-01-12T03:21:16.925Z,1.70
2019-01-12T03:23:47.033Z,1.70
2019-01-12T03:26:17.783Z,1.70
2019-01-12T03:28:49.565Z,1.70
2019-01-12T03:33:56.012Z,1.70
2019-01-12T03:36:26.084Z,1.70
2019-01-12T03:38:56.615Z,1.70
2019-01-12T03:41:47.080Z,1.70
2019-01-12T03:44:17.664Z,1.70
2019-01-12T03:46:47.763Z,1.70
2019-01-12T03:49:20.323Z,1.70
2019-01-12T03:51:53.188Z,1.80
2019-01-12T03:54:23.477Z,1.80
2019-01-12T03:56:54.511Z,1.80
2019-01-12T03:59:27.360Z,1.80
2019-01-12T04:02:00.239Z,1.90
2019-01-12T04:04:30.254Z,1.90
2019-01-12T04:07:06.958Z,1.80
2019-01-12T04:09:35.357Z,1.90
2019-01-12T04:12:05.137Z,1.90
2019-01-12T04:14:35.312Z,1.90
2019-01-12T04:17:06.139Z,1.80
2019-01-12T04:19:35.840Z,1.80
2019-01-12T04:22:10.743Z,1.80
2019-01-12T04:24:40.775Z,1.80
2019-01-12T04:27:12.435Z,1.80
2019-01-12T04:29:42.751Z,1.80
2019-01-12T04:32:19.125Z,1.90
2019-01-12T04:34:52.155Z,1.80
2019-01-12T04:37:23.189Z,1.80
2019-01-12T04:39:53.273Z,1.90
2019-01-12T04:42:24.334Z,1.90
2019-01-12T04:45:05.199Z,2.00
2019-01-12T04:47:35.268Z,2.00
2019-01-12T04:50:06.353Z,2.00
2019-01-12T04:52:36.188Z,2.10
2019-01-12T04:55:06.670Z,2.00
2019-01-12T04:57:40.489Z,2.00
2019-01-12T05:00:13.789Z,2.00
2019-01-12T05:02:44.067Z,2.00
2019-01-12T05:05:26.319Z,1.90
2019-01-12T05:07:58.699Z,2.00
2019-01-12T05:10:28.978Z,2.00
2019-01-12T05:13:07.910Z,2.00
2019-01-12T05:15:46.740Z,2.00
2019-01-12T05:18:17.929Z,2.00
2019-01-12T05:20:54.208Z,2.00
2019-01-12T05:23:27.895Z,2.00
2019-01-12T05:25:58.355Z,1.90
2019-01-12T05:28:28.908Z,1.90
2019-01-12T05:30:59.296Z,2.00
2019-01-12T05:33:29.922Z,1.90
2019-01-12T05:36:01.488Z,1.90
2019-01-12T05:38:31.695Z,1.90
2019-01-12T05:41:05.493Z,1.90
2019-01-12T05:43:36.820Z,1.90
2019-01-12T05:46:07.225Z,1.90
2019-01-12T05:48:38.796Z,2.00
2019-01-12T05:54:02.977Z,2.00
2019-01-12T05:56:33.476Z,2.00
2019-01-12T05:59:04.191Z,2.00
2019-01-12T06:01:34.494Z,2.00
2019-01-12T06:04:08.078Z,2.00
2019-01-12T06:06:57.519Z,2.00
2019-01-12T06:09:27.541Z,2.00
2019-01-12T06:12:00.718Z,2.00
2019-01-12T06:14:33.231Z,1.90
2019-01-12T06:17:06.390Z,1.90
2019-01-12T06:19:39.179Z,1.90
2019-01-12T06:22:09.662Z,2.00
2019-01-12T06:24:42.479Z,1.90
2019-01-12T06:27:13.403Z,1.90
2019-01-12T06:29:43.188Z,1.80
2019-01-12T06:32:12.775Z,1.80
2019-01-12T06:34:42.829Z,1.90
2019-01-12T06:37:19.566Z,1.80
2019-01-12T06:39:54.713Z,1.80
2019-01-12T06:42:26.216Z,1.80
2019-01-12T06:44:56.802Z,1.80
2019-01-12T06:47:26.540Z,1.80
2019-01-12T06:50:03.521Z,1.80
2019-01-12T06:52:34.335Z,1.80
2019-01-12T06:55:07.584Z,1.80
2019-01-12T06:57:39.459Z,1.80
2019-01-12T07:00:17.004Z,1.80
2019-01-12T07:02:56.885Z,1.90
2019-01-12T07:05:25.990Z,1.80
2019-01-12T07:08:49.849Z,1.90
2019-01-12T07:11:25.358Z,1.90
2019-01-12T07:14:00.295Z,1.90
2019-01-12T07:16:30.491Z,1.90
2019-01-12T07:19:00.264Z,1.90
2019-01-12T07:21:30.340Z,1.90
2019-01-12T07:24:00.451Z,1.90
2019-01-12T07:26:51.781Z,1.90
2019-01-12T07:34:12.120Z,1.90
2019-01-12T07:42:00.543Z,1.90
2019-01-12T07:45:13.878Z,1.80
2019-01-12T07:47:46.607Z,1.90
2019-01-12T07:50:17.871Z,1.90
2019-01-12T07:52:47.879Z,1.80
2019-01-12T07:55:17.604Z,1.90
2019-01-12T07:57:48.059Z,1.80
2019-01-12T08:00:21.774Z,1.90
2019-01-12T08:02:51.835Z,1.90
2019-01-12T08:05:22.743Z,1.90
2019-01-12T08:07:53.198Z,1.90
2019-01-12T08:10:31.214Z,2.00
2019-01-12T08:13:03.248Z,2.00
2019-01-12T08:15:33.179Z,2.00
2019-01-12T08:18:03.374Z,2.00
2019-01-12T08:20:32.748Z,1.90
2019-01-12T08:23:02.147Z,2.00
2019-01-12T08:25:36.283Z,1.90
2019-01-12T08:28:06.311Z,1.90
2019-01-12T08:30:37.033Z,1.90
2019-01-12T08:33:06.732Z,1.90
2019-01-12T08:35:36.053Z,2.00
2019-01-12T08:38:12.948Z,2.00
2019-01-12T08:40:42.886Z,2.00
2019-01-12T08:43:12.468Z,2.00
2019-01-12T08:45:44.973Z,2.00
2019-01-12T08:48:15.406Z,2.10
2019-01-12T08:50:45.849Z,2.10
2019-01-12T08:53:15.723Z,2.10
2019-01-12T08:55:45.472Z,2.10
2019-01-12T08:58:16.990Z,2.10
2019-01-12T09:19:07.257Z,2.10
2019-01-12T09:28:14.762Z,2.00
2019-01-12T09:30:48.490Z,2.10
2019-01-12T09:33:15.717Z,2.20
2019-01-12T09:35:45.157Z,2.20
2019-01-12T09:38:15.168Z,2.20
2019-01-12T09:40:44.722Z,2.30
2019-01-12T09:43:14.571Z,2.20
2019-01-12T09:45:44.040Z,2.30
2019-01-12T09:48:13.554Z,2.30
2019-01-12T09:50:43.649Z,2.20
2019-01-12T09:53:15.201Z,2.30
2019-01-12T09:55:45.602Z,2.20
2019-01-12T09:58:15.482Z,2.20
2019-01-12T10:00:45.183Z,2.30
2019-01-12T10:03:14.906Z,2.30
2019-01-12T10:05:45.241Z,2.30
2019-01-12T10:08:15.214Z,2.40
2019-01-12T10:10:45.137Z,2.30
2019-01-12T10:13:15.190Z,2.30
2019-01-12T10:15:45.547Z,2.40
2019-01-12T10:18:16.269Z,2.40
2019-01-12T10:20:46.138Z,2.30
2019-01-12T10:23:16.364Z,2.30
2019-01-12T10:25:46.374Z,2.30
2019-01-12T10:28:16.137Z,2.40
2019-01-12T10:30:46.017Z,2.40
2019-01-12T10:33:15.946Z,2.50
2019-01-12T10:35:45.819Z,2.50
2019-01-12T10:38:17.083Z,2.50
2019-01-12T10:40:47.673Z,2.60
2019-01-12T10:43:18.098Z,2.60
2019-01-12T10:45:48.209Z,2.60
2019-01-12T10:48:17.765Z,2.60
2019-01-12T10:50:47.614Z,2.60
2019-01-12T10:53:17.598Z,2.80
2019-01-12T10:55:47.646Z,2.80
2019-01-12T10:58:17.099Z,2.80
2019-01-12T11:00:46.416Z,2.80
2019-01-12T11:03:16.469Z,2.80
2019-01-12T11:05:49.529Z,2.80
2019-01-12T11:08:23.670Z,2.80
2019-01-12T11:10:57.538Z,2.90
2019-01-12T11:13:27.714Z,2.80
2019-01-12T11:15:57.762Z,2.80
2019-01-12T11:18:27.381Z,2.90
2019-01-12T11:20:57.042Z,2.90
2019-01-12T11:23:31.278Z,2.90
2019-01-12T11:26:01.512Z,2.90
2019-01-12T11:28:33.690Z,2.80
2019-01-12T11:31:03.514Z,2.80
2019-01-12T11:33:33.017Z,2.90
2019-01-12T11:36:02.663Z,2.90
2019-01-12T11:38:32.528Z,2.90
2019-01-12T11:41:01.826Z,2.90
2019-01-12T11:43:31.557Z,2.90
2019-01-12T11:46:01.592Z,2.90
2019-01-12T11:49:42.195Z,2.90
2019-01-12T11:53:12.333Z,2.90
2019-01-12T11:57:06.067Z,2.90
2019-01-12T12:00:21.539Z,2.90
2019-01-12T12:06:48.793Z,2.90
2019-01-12T12:09:36.488Z,3.00
2019-01-12T12:12:43.981Z,3.00
2019-01-12T12:15:14.359Z,3.00
2019-01-12T12:17:43.852Z,3.00
2019-01-12T12:20:23.932Z,3.00
2019-01-12T12:22:54.094Z,3.10
2019-01-12T12:25:23.916Z,3.10
2019-01-12T12:27:54.136Z,3.10
2019-01-12T12:30:28.541Z,3.20
2019-01-12T12:33:04.573Z,3.20
2019-01-12T12:35:37.652Z,3.20
2019-01-12T12:38:05.418Z,3.10
2019-01-12T12:40:35.187Z,3.00
2019-01-12T12:43:05.118Z,3.10
2019-01-12T12:45:36.031Z,3.00
2019-01-12T12:48:06.773Z,3.00
2019-01-12T12:50:36.826Z,2.90
2019-01-12T12:53:07.476Z,2.90
2019-01-12T12:55:37.620Z,3.00
2019-01-12T12:58:07.375Z,3.00
2019-01-12T13:00:37.155Z,3.00
2019-01-12T13:03:06.760Z,3.10
2019-01-12T13:05:36.470Z,3.10
2019-01-12T13:08:06.254Z,3.10
2019-01-12T13:10:59.967Z,3.10
2019-01-12T13:13:42.027Z,3.10
2019-01-12T13:16:22.410Z,3.10
2019-01-12T13:20:24.763Z,3.10
2019-01-12T13:22:57.081Z,3.10
2019-01-12T13:25:32.856Z,3.10
2019-01-12T13:28:13.432Z,3.00
2019-01-12T13:30:46.276Z,3.00
2019-01-12T13:33:16.354Z,3.00
2019-01-12T13:36:36.285Z,3.00
2019-01-12T13:39:18.544Z,3.00
2019-01-12T13:45:13.229Z,3.00
2019-01-12T13:47:55.360Z,2.90
2019-01-12T13:50:37.838Z,2.90
2019-01-12T13:53:08.831Z,2.90
2019-01-12T13:55:49.246Z,2.80
2019-01-12T14:02:14.754Z,2.80
2019-01-12T14:04:49.416Z,2.90
2019-01-12T14:07:30.597Z,2.80
2019-01-12T14:10:00.994Z,2.90
2019-01-12T14:12:32.871Z,2.90
2019-01-12T14:15:03.091Z,2.90
2019-01-12T14:17:32.889Z,2.90
2019-01-12T14:20:02.634Z,2.90
2019-01-12T14:22:42.175Z,2.90
2019-01-12T14:25:12.997Z,3.00
2019-01-12T14:27:46.536Z,2.90
2019-01-12T14:30:18.228Z,2.90
2019-01-12T14:32:48.715Z,2.90
2019-01-12T14:35:19.402Z,2.90
2019-01-12T14:37:50.768Z,2.90
2019-01-12T14:40:21.504Z,2.90
2019-01-12T14:42:52.374Z,2.90
2019-01-12T14:45:25.999Z,2.80
2019-01-12T14:47:56.552Z,2.90
2019-01-12T14:50:29.221Z,2.90
2019-01-12T14:52:59.618Z,2.80
2019-01-12T14:55:30.691Z,2.80
2019-01-12T14:58:02.744Z,2.90
2019-01-12T15:00:33.120Z,2.90
2019-01-12T15:03:03.106Z,2.80
2019-01-12T15:05:34.176Z,2.80
2019-01-12T15:08:08.134Z,2.80
2019-01-12T15:10:38.558Z,2.70
2019-01-12T15:13:09.178Z,2.70
2019-01-12T15:15:39.155Z,2.70
2019-01-12T15:18:09.223Z,2.70
2019-01-12T15:20:39.087Z,2.70
2019-01-12T15:23:11.681Z,2.70
2019-01-12T15:25:41.036Z,2.70
2019-01-12T15:28:10.872Z,2.60
2019-01-12T15:30:40.837Z,2.60
2019-01-12T15:33:11.834Z,2.60
2019-01-12T15:35:44.757Z,2.60
2019-01-12T15:38:14.333Z,2.50
2019-01-12T15:40:43.957Z,2.50
2019-01-12T15:43:13.465Z,2.50
2019-01-12T15:45:43.724Z,2.50
2019-01-12T15:48:13.408Z,2.60
2019-01-12T15:50:47.349Z,2.50
2019-01-12T15:53:16.785Z,2.50
2019-01-12T15:55:46.579Z,2.50
2019-01-12T15:58:16.664Z,2.60
2019-01-12T16:00:46.499Z,2.60
2019-01-12T16:03:15.875Z,2.60
2019-01-12T16:05:45.281Z,2.60
2019-01-12T16:08:15.053Z,2.60
2019-01-12T16:10:44.689Z,2.50
2019-01-12T16:13:19.329Z,2.60
2019-01-12T16:15:49.160Z,2.60
2019-01-12T16:18:18.969Z,2.60
2019-01-12T16:20:48.804Z,2.50
2019-01-12T16:23:18.453Z,2.60
2019-01-12T16:25:48.019Z,2.60
2019-01-12T16:28:23.165Z,2.60
2019-01-12T16:30:49.647Z,2.60
2019-01-12T16:33:20.870Z,2.60
2019-01-12T16:35:51.190Z,2.60
2019-01-12T16:38:21.186Z,2.60
2019-01-12T16:40:51.962Z,2.60
2019-01-12T16:43:23.491Z,2.60
2019-01-12T16:45:53.433Z,2.60
2019-01-12T16:48:23.795Z,2.60
2019-01-12T16:50:53.638Z,2.60
2019-01-12T16:53:23.710Z,2.60
2019-01-12T16:55:54.315Z,2.60
2019-01-12T16:58:30.442Z,2.60
2019-01-12T17:00:56.211Z,2.60
2019-01-12T17:03:26.050Z,2.60
2019-01-12T17:05:57.475Z,2.60
2019-01-12T17:08:32.652Z,2.60
2019-01-12T17:11:05.459Z,2.60
2019-01-12T17:13:40.184Z,2.60
2019-01-12T17:16:06.879Z,2.60
2019-01-12T17:18:37.857Z,2.60
2019-01-12T17:21:11.438Z,2.60
2019-01-12T17:24:09.227Z,2.60
2019-01-12T17:26:41.420Z,2.60
2019-01-12T17:29:17.562Z,2.50
2019-01-12T17:31:42.877Z,2.50
2019-01-12T17:34:16.064Z,2.50
2019-01-12T17:36:46.635Z,2.50
2019-01-12T17:39:16.560Z,2.50
2019-01-12T17:41:46.011Z,2.50
2019-01-12T17:44:15.918Z,2.40
2019-01-12T17:46:45.994Z,2.40
2019-01-12T17:49:16.303Z,2.40
2019-01-12T17:51:47.927Z,2.30
2019-01-12T17:54:19.709Z,2.30
2019-01-12T17:56:49.409Z,2.30
2019-01-12T17:59:19.283Z,2.30
2019-01-12T18:01:49.098Z,2.20
2019-01-12T18:04:18.928Z,2.20
2019-01-12T18:06:49.375Z,2.20
2019-01-12T18:09:19.523Z,2.20
2019-01-12T18:11:49.325Z,2.10
2019-01-12T18:14:19.020Z,2.10
2019-01-12T18:16:49.892Z,2.10
2019-01-12T18:19:23.398Z,2.10
2019-01-12T18:21:56.075Z,2.10
2019-01-12T18:24:25.864Z,2.10
2019-01-12T18:26:56.942Z,2.10
2019-01-12T18:29:27.590Z,2.10
2019-01-12T18:31:58.374Z,2.10
2019-01-12T18:34:28.763Z,2.00
2019-01-12T18:37:02.348Z,2.00
2019-01-12T18:39:37.466Z,2.00
2019-01-12T18:42:07.521Z,2.00
2019-01-12T18:44:37.304Z,2.00
2019-01-12T18:47:07.095Z,1.90
2019-01-12T18:49:36.819Z,1.90
2019-01-12T18:52:06.636Z,2.00
2019-01-12T18:54:48.231Z,2.00
2019-01-12T18:57:18.665Z,2.00
2019-01-12T18:59:48.355Z,2.00
2019-01-12T19:02:18.050Z,2.00
2019-01-12T19:04:47.914Z,2.00
2019-01-12T19:17:50.711Z,1.90
2019-01-12T19:20:20.964Z,1.90
2019-01-12T19:22:53.025Z,1.90
2019-01-12T19:25:26.846Z,1.90
2019-01-12T19:27:56.890Z,1.90
2019-01-12T19:30:39.418Z,1.80
2019-01-12T19:33:10.441Z,1.90
2019-01-12T19:35:44.232Z,1.80
2019-01-12T19:38:15.304Z,1.80
2019-01-12T19:40:45.821Z,1.80
2019-01-12T19:43:26.817Z,1.80
2019-01-12T19:46:11.353Z,1.90
2019-01-12T19:48:41.804Z,1.80
2019-01-12T19:51:12.921Z,1.80
2019-01-12T19:53:44.380Z,1.80
2019-01-12T19:56:17.408Z,1.80
2019-01-12T19:58:47.597Z,1.80
2019-01-12T20:01:18.475Z,1.80
2019-01-12T20:03:56.784Z,1.80
2019-01-12T20:06:37.695Z,1.80
2019-01-12T20:09:20.874Z,1.80
2019-01-12T20:11:58.820Z,1.80
2019-01-12T20:14:29.334Z,1.80
2019-01-12T20:17:16.863Z,1.80
2019-01-12T20:20:00.277Z,1.80
2019-01-12T20:22:36.969Z,1.80
2019-01-12T20:25:19.731Z,1.80
2019-01-12T20:27:55.525Z,1.80
2019-01-12T20:30:52.401Z,1.70
2019-01-12T20:33:35.071Z,1.80
2019-01-12T20:36:51.498Z,1.90
2019-01-12T20:40:29.817Z,1.80
2019-01-12T20:44:05.911Z,1.70
2019-01-12T20:47:29.636Z,1.70
2019-01-12T20:50:39.706Z,1.70
2019-01-12T20:53:21.804Z,1.70
2019-01-12T20:56:33.770Z,1.60
2019-01-12T20:59:44.021Z,1.70
2019-01-12T21:02:56.246Z,1.70
2019-01-12T21:06:16.828Z,1.70
2019-01-12T21:09:37.240Z,1.70
2019-01-12T21:12:42.120Z,1.80
2019-01-12T21:15:32.138Z,1.70
2019-01-12T21:18:24.462Z,1.80
2019-01-12T21:21:19.882Z,1.80
2019-01-12T21:23:50.847Z,1.80
2019-01-12T21:26:25.852Z,1.80
2019-01-12T21:29:09.180Z,1.80
2019-01-12T21:31:53.101Z,1.80
2019-01-12T21:34:23.183Z,1.90
2019-01-12T21:36:58.609Z,1.90
2019-01-12T21:39:30.343Z,1.90
2019-01-12T21:42:00.528Z,1.90
2019-01-12T21:44:35.403Z,1.90
2019-01-12T21:47:22.209Z,1.90
2019-01-12T21:49:58.013Z,1.90
2019-01-12T21:52:29.445Z,1.90
2019-01-12T21:54:59.312Z,1.90
2019-01-12T22:16:57.340Z,1.90
2019-01-12T22:19:38.627Z,1.90
2019-01-12T22:22:09.694Z,1.90
2019-01-12T22:24:42.224Z,1.90
2019-01-12T22:27:17.676Z,1.90
2019-01-12T22:29:57.637Z,1.90
2019-01-12T22:32:35.985Z,1.90
2019-01-12T22:35:23.780Z,1.90
2019-01-12T22:37:54.057Z,1.90
2019-01-12T22:40:25.296Z,1.90
2019-01-12T22:43:06.277Z,1.90
2019-01-12T22:45:42.871Z,2.00
2019-01-12T22:48:13.993Z,2.00
2019-01-12T22:50:44.654Z,2.00
2019-01-12T22:53:19.469Z,2.10
2019-01-12T22:55:54.870Z,2.10
2019-01-12T22:58:25.669Z,2.00
2019-01-12T23:01:37.993Z,2.10
2019-01-12T23:04:11.793Z,2.10
2019-01-12T23:06:53.495Z,2.10
2019-01-12T23:09:34.621Z,2.10
2019-01-12T23:12:11.032Z,2.10
2019-01-12T23:14:42.675Z,2.10
2019-01-12T23:17:26.178Z,2.10
2019-01-12T23:19:57.924Z,2.10
2019-01-12T23:22:28.632Z,2.10
2019-01-12T23:25:06.566Z,2.10
2019-01-12T23:27:47.216Z,2.10
2019-01-12T23:30:28.536Z,2.10
2019-01-12T23:33:07.045Z,2.10
2019-01-12T23:35:35.422Z,2.20
2019-01-12T23:38:15.711Z,2.20
2019-01-12T23:40:49.783Z,2.20
2019-01-12T23:43:27.620Z,2.20
2019-01-12T23:45:59.705Z,2.20
2019-01-12T23:48:34.385Z,2.20
2019-01-12T23:51:10.482Z,2.20
2019-01-12T23:57:10.816Z,2.20
2019-01-12T23:59:43.394Z,2.20
